sensor_id;sensor_type;location;lat;lon;timestamp;P1;durP1;ratioP1;P2;durP2;ratioP2
49183;SDS011;35021;49.214;12.270;2023-07-08T00:00:25;3.65;;;3.22;;
49183;SDS011;35021;49.214;12.270;2023-07-08T00:02:52;4.43;;;3.28;;
49183;SDS011;35021;49.214;12.270;2023-07-08T00:05:20;4.18;;;3.40;;
49183;SDS011;35021;49.214;12.270;2023-07-08T00:07:49;4.28;;;3.25;;
49183;SDS011;35021;49.214;12.270;2023-07-08T00:10:20;3.67;;;3.25;;
49183;SDS011;35021;49.214;12.270;2023-07-08T00:12:49;3.47;;;3.17;;
49183;SDS011;35021;49.214;12.270;2023-07-08T00:15:18;3.45;;;3.10;;
49183;SDS011;35021;49.214;12.270;2023-07-08T00:17:48;4.13;;;3.42;;
49183;SDS011;35021;49.214;12.270;2023-07-08T00:23:04;4.05;;;2.85;;
49183;SDS011;35021;49.214;12.270;2023-07-08T00:25:32;3.80;;;3.33;;
49183;SDS011;35021;49.214;12.270;2023-07-08T00:27:59;4.15;;;3.13;;
49183;SDS011;35021;49.214;12.270;2023-07-08T00:30:27;4.25;;;3.42;;
49183;SDS011;35021;49.214;12.270;2023-07-08T00:32:56;3.45;;;3.10;;
49183;SDS011;35021;49.214;12.270;2023-07-08T00:35:33;3.67;;;3.22;;
49183;SDS011;35021;49.214;12.270;2023-07-08T00:41:01;3.63;;;3.22;;
49183;SDS011;35021;49.214;12.270;2023-07-08T00:43:35;4.18;;;3.47;;
49183;SDS011;35021;49.214;12.270;2023-07-08T00:49:31;3.13;;;2.83;;
49183;SDS011;35021;49.214;12.270;2023-07-08T00:52:23;3.55;;;3.00;;
49183;SDS011;35021;49.214;12.270;2023-07-08T00:54:53;3.25;;;2.75;;
49183;SDS011;35021;49.214;12.270;2023-07-08T00:57:31;3.58;;;2.90;;
49183;SDS011;35021;49.214;12.270;2023-07-08T01:00:03;3.70;;;2.92;;
49183;SDS011;35021;49.214;12.270;2023-07-08T01:02:40;3.42;;;3.10;;
49183;SDS011;35021;49.214;12.270;2023-07-08T01:05:15;4.07;;;3.25;;
49183;SDS011;35021;49.214;12.270;2023-07-08T01:07:46;3.90;;;3.35;;
49183;SDS011;35021;49.214;12.270;2023-07-08T01:10:26;3.53;;;3.22;;
49183;SDS011;35021;49.214;12.270;2023-07-08T01:12:59;4.18;;;3.63;;
49183;SDS011;35021;49.214;12.270;2023-07-08T01:15:33;3.50;;;3.15;;
49183;SDS011;35021;49.214;12.270;2023-07-08T01:18:05;3.88;;;3.30;;
49183;SDS011;35021;49.214;12.270;2023-07-08T01:20:32;4.03;;;3.20;;
49183;SDS011;35021;49.214;12.270;2023-07-08T01:23:00;3.75;;;3.17;;
49183;SDS011;35021;49.214;12.270;2023-07-08T01:25:27;3.40;;;3.10;;
49183;SDS011;35021;49.214;12.270;2023-07-08T01:27:55;3.95;;;3.38;;
49183;SDS011;35021;49.214;12.270;2023-07-08T01:30:23;4.50;;;3.20;;
49183;SDS011;35021;49.214;12.270;2023-07-08T01:32:55;3.38;;;3.03;;
49183;SDS011;35021;49.214;12.270;2023-07-08T01:35:24;3.60;;;3.30;;
49183;SDS011;35021;49.214;12.270;2023-07-08T01:37:57;4.70;;;3.28;;
49183;SDS011;35021;49.214;12.270;2023-07-08T01:40:32;3.35;;;2.95;;
49183;SDS011;35021;49.214;12.270;2023-07-08T01:43:04;3.97;;;3.05;;
49183;SDS011;35021;49.214;12.270;2023-07-08T01:45:39;3.65;;;3.13;;
49183;SDS011;35021;49.214;12.270;2023-07-08T01:48:11;3.95;;;3.55;;
49183;SDS011;35021;49.214;12.270;2023-07-08T01:50:42;4.80;;;3.60;;
49183;SDS011;35021;49.214;12.270;2023-07-08T01:53:15;3.67;;;3.22;;
49183;SDS011;35021;49.214;12.270;2023-07-08T01:55:50;3.53;;;3.22;;
49183;SDS011;35021;49.214;12.270;2023-07-08T01:58:17;3.50;;;3.13;;
49183;SDS011;35021;49.214;12.270;2023-07-08T02:00:44;3.80;;;3.33;;
49183;SDS011;35021;49.214;12.270;2023-07-08T02:03:15;3.88;;;3.10;;
49183;SDS011;35021;49.214;12.270;2023-07-08T02:05:44;4.68;;;2.90;;
49183;SDS011;35021;49.214;12.270;2023-07-08T02:08:12;4.38;;;3.42;;
49183;SDS011;35021;49.214;12.270;2023-07-08T02:10:40;3.42;;;3.13;;
49183;SDS011;35021;49.214;12.270;2023-07-08T02:13:08;3.33;;;2.88;;
49183;SDS011;35021;49.214;12.270;2023-07-08T02:15:35;3.50;;;3.20;;
49183;SDS011;35021;49.214;12.270;2023-07-08T02:18:02;3.70;;;3.15;;
49183;SDS011;35021;49.214;12.270;2023-07-08T02:20:29;3.78;;;3.20;;
49183;SDS011;35021;49.214;12.270;2023-07-08T02:22:56;3.30;;;2.90;;
49183;SDS011;35021;49.214;12.270;2023-07-08T02:25:23;3.80;;;3.40;;
49183;SDS011;35021;49.214;12.270;2023-07-08T02:27:52;3.40;;;3.10;;
49183;SDS011;35021;49.214;12.270;2023-07-08T02:30:23;3.00;;;2.70;;
49183;SDS011;35021;49.214;12.270;2023-07-08T02:32:51;3.63;;;3.30;;
49183;SDS011;35021;49.214;12.270;2023-07-08T02:35:24;3.80;;;3.05;;
49183;SDS011;35021;49.214;12.270;2023-07-08T02:37:53;4.28;;;3.03;;
49183;SDS011;35021;49.214;12.270;2023-07-08T02:40:21;3.40;;;3.10;;
49183;SDS011;35021;49.214;12.270;2023-07-08T02:42:49;5.25;;;3.45;;
49183;SDS011;35021;49.214;12.270;2023-07-08T02:45:17;3.85;;;3.40;;
49183;SDS011;35021;49.214;12.270;2023-07-08T02:47:45;3.05;;;2.60;;
49183;SDS011;35021;49.214;12.270;2023-07-08T02:50:12;3.63;;;3.05;;
49183;SDS011;35021;49.214;12.270;2023-07-08T02:52:39;4.35;;;3.40;;
49183;SDS011;35021;49.214;12.270;2023-07-08T02:55:06;3.80;;;3.33;;
49183;SDS011;35021;49.214;12.270;2023-07-08T02:57:34;3.58;;;3.28;;
49183;SDS011;35021;49.214;12.270;2023-07-08T03:00:02;3.63;;;2.85;;
49183;SDS011;35021;49.214;12.270;2023-07-08T03:02:31;3.70;;;3.00;;
49183;SDS011;35021;49.214;12.270;2023-07-08T03:04:58;3.75;;;3.33;;
49183;SDS011;35021;49.214;12.270;2023-07-08T03:07:25;3.30;;;3.00;;
49183;SDS011;35021;49.214;12.270;2023-07-08T03:09:52;4.15;;;3.33;;
49183;SDS011;35021;49.214;12.270;2023-07-08T03:12:19;4.05;;;3.40;;
49183;SDS011;35021;49.214;12.270;2023-07-08T03:14:47;3.53;;;3.22;;
49183;SDS011;35021;49.214;12.270;2023-07-08T03:17:14;3.85;;;3.13;;
49183;SDS011;35021;49.214;12.270;2023-07-08T03:19:44;4.10;;;3.00;;
49183;SDS011;35021;49.214;12.270;2023-07-08T03:22:11;3.92;;;3.30;;
49183;SDS011;35021;49.214;12.270;2023-07-08T03:24:38;4.20;;;3.70;;
49183;SDS011;35021;49.214;12.270;2023-07-08T03:27:13;3.45;;;3.15;;
49183;SDS011;35021;49.214;12.270;2023-07-08T03:29:40;3.65;;;3.35;;
49183;SDS011;35021;49.214;12.270;2023-07-08T03:32:11;3.95;;;3.22;;
49183;SDS011;35021;49.214;12.270;2023-07-08T03:34:38;4.25;;;3.00;;
49183;SDS011;35021;49.214;12.270;2023-07-08T03:37:05;4.55;;;3.28;;
49183;SDS011;35021;49.214;12.270;2023-07-08T03:39:33;3.58;;;3.22;;
49183;SDS011;35021;49.214;12.270;2023-07-08T03:42:00;4.05;;;3.40;;
49183;SDS011;35021;49.214;12.270;2023-07-08T03:44:27;3.47;;;3.17;;
49183;SDS011;35021;49.214;12.270;2023-07-08T03:46:54;3.88;;;3.35;;
49183;SDS011;35021;49.214;12.270;2023-07-08T03:49:22;5.72;;;3.30;;
49183;SDS011;35021;49.214;12.270;2023-07-08T03:51:53;4.80;;;3.33;;
49183;SDS011;35021;49.214;12.270;2023-07-08T03:54:21;3.83;;;3.42;;
49183;SDS011;35021;49.214;12.270;2023-07-08T03:56:50;3.85;;;3.38;;
49183;SDS011;35021;49.214;12.270;2023-07-08T03:59:18;3.80;;;3.15;;
49183;SDS011;35021;49.214;12.270;2023-07-08T04:01:45;3.90;;;3.05;;
49183;SDS011;35021;49.214;12.270;2023-07-08T04:04:13;3.88;;;3.20;;
49183;SDS011;35021;49.214;12.270;2023-07-08T04:06:42;5.57;;;3.75;;
49183;SDS011;35021;49.214;12.270;2023-07-08T04:09:09;5.30;;;3.17;;
49183;SDS011;35021;49.214;12.270;2023-07-08T04:11:37;6.32;;;3.40;;
49183;SDS011;35021;49.214;12.270;2023-07-08T04:14:04;3.97;;;3.55;;
49183;SDS011;35021;49.214;12.270;2023-07-08T04:16:35;3.85;;;3.28;;
49183;SDS011;35021;49.214;12.270;2023-07-08T04:19:18;3.28;;;2.92;;
49183;SDS011;35021;49.214;12.270;2023-07-08T04:21:46;3.60;;;3.22;;
49183;SDS011;35021;49.214;12.270;2023-07-08T04:24:13;4.13;;;3.40;;
49183;SDS011;35021;49.214;12.270;2023-07-08T04:26:42;3.67;;;3.38;;
49183;SDS011;35021;49.214;12.270;2023-07-08T04:29:12;4.20;;;3.60;;
49183;SDS011;35021;49.214;12.270;2023-07-08T04:31:41;3.60;;;3.17;;
49183;SDS011;35021;49.214;12.270;2023-07-08T04:34:08;3.30;;;3.00;;
49183;SDS011;35021;49.214;12.270;2023-07-08T04:36:36;3.35;;;3.05;;
49183;SDS011;35021;49.214;12.270;2023-07-08T04:39:04;4.40;;;3.70;;
49183;SDS011;35021;49.214;12.270;2023-07-08T04:41:32;4.72;;;4.13;;
49183;SDS011;35021;49.214;12.270;2023-07-08T04:44:00;4.25;;;3.55;;
49183;SDS011;35021;49.214;12.270;2023-07-08T04:46:34;3.85;;;3.40;;
49183;SDS011;35021;49.214;12.270;2023-07-08T04:49:05;3.60;;;3.30;;
49183;SDS011;35021;49.214;12.270;2023-07-08T04:51:33;3.58;;;3.22;;
49183;SDS011;35021;49.214;12.270;2023-07-08T04:54:00;4.32;;;3.53;;
49183;SDS011;35021;49.214;12.270;2023-07-08T04:56:38;3.60;;;3.15;;
49183;SDS011;35021;49.214;12.270;2023-07-08T04:59:10;4.30;;;3.90;;
49183;SDS011;35021;49.214;12.270;2023-07-08T05:01:39;4.40;;;3.53;;
49183;SDS011;35021;49.214;12.270;2023-07-08T05:04:07;5.80;;;3.35;;
49183;SDS011;35021;49.214;12.270;2023-07-08T05:06:37;4.13;;;3.72;;
49183;SDS011;35021;49.214;12.270;2023-07-08T05:09:04;3.92;;;3.25;;
49183;SDS011;35021;49.214;12.270;2023-07-08T05:11:32;4.22;;;3.83;;
49183;SDS011;35021;49.214;12.270;2023-07-08T05:13:59;5.82;;;3.78;;
49183;SDS011;35021;49.214;12.270;2023-07-08T05:16:27;4.32;;;3.42;;
49183;SDS011;35021;49.214;12.270;2023-07-08T05:18:54;6.07;;;3.63;;
49183;SDS011;35021;49.214;12.270;2023-07-08T05:21:21;4.13;;;3.60;;
49183;SDS011;35021;49.214;12.270;2023-07-08T05:23:48;5.07;;;3.17;;
49183;SDS011;35021;49.214;12.270;2023-07-08T05:26:15;4.70;;;3.45;;
49183;SDS011;35021;49.214;12.270;2023-07-08T05:28:43;4.43;;;3.72;;
49183;SDS011;35021;49.214;12.270;2023-07-08T05:31:10;5.03;;;3.53;;
49183;SDS011;35021;49.214;12.270;2023-07-08T05:33:37;4.25;;;3.85;;
49183;SDS011;35021;49.214;12.270;2023-07-08T05:36:04;6.03;;;4.30;;
49183;SDS011;35021;49.214;12.270;2023-07-08T05:38:31;4.35;;;3.88;;
49183;SDS011;35021;49.214;12.270;2023-07-08T05:40:59;6.50;;;4.55;;
49183;SDS011;35021;49.214;12.270;2023-07-08T05:43:26;4.43;;;4.03;;
49183;SDS011;35021;49.214;12.270;2023-07-08T05:45:58;4.65;;;3.95;;
49183;SDS011;35021;49.214;12.270;2023-07-08T05:48:38;4.97;;;4.10;;
49183;SDS011;35021;49.214;12.270;2023-07-08T05:51:05;5.78;;;4.72;;
49183;SDS011;35021;49.214;12.270;2023-07-08T05:53:32;6.70;;;4.60;;
49183;SDS011;35021;49.214;12.270;2023-07-08T05:55:59;6.45;;;4.93;;
49183;SDS011;35021;49.214;12.270;2023-07-08T05:58:26;5.43;;;4.43;;
49183;SDS011;35021;49.214;12.270;2023-07-08T06:00:56;6.18;;;4.60;;
49183;SDS011;35021;49.214;12.270;2023-07-08T06:03:25;4.57;;;3.90;;
49183;SDS011;35021;49.214;12.270;2023-07-08T06:05:53;4.78;;;4.22;;
49183;SDS011;35021;49.214;12.270;2023-07-08T06:08:20;5.53;;;4.15;;
49183;SDS011;35021;49.214;12.270;2023-07-08T06:10:47;4.93;;;4.40;;
49183;SDS011;35021;49.214;12.270;2023-07-08T06:13:15;5.40;;;4.35;;
49183;SDS011;35021;49.214;12.270;2023-07-08T06:15:42;6.25;;;4.18;;
49183;SDS011;35021;49.214;12.270;2023-07-08T06:18:09;5.63;;;4.22;;
49183;SDS011;35021;49.214;12.270;2023-07-08T06:20:36;5.30;;;3.70;;
49183;SDS011;35021;49.214;12.270;2023-07-08T06:23:03;4.97;;;4.22;;
49183;SDS011;35021;49.214;12.270;2023-07-08T06:25:31;5.15;;;4.45;;
49183;SDS011;35021;49.214;12.270;2023-07-08T06:27:59;4.95;;;4.30;;
49183;SDS011;35021;49.214;12.270;2023-07-08T06:30:26;6.18;;;4.50;;
49183;SDS011;35021;49.214;12.270;2023-07-08T06:32:53;4.65;;;3.70;;
49183;SDS011;35021;49.214;12.270;2023-07-08T06:35:20;4.07;;;3.67;;
49183;SDS011;35021;49.214;12.270;2023-07-08T06:37:48;5.00;;;3.72;;
49183;SDS011;35021;49.214;12.270;2023-07-08T06:40:15;4.28;;;3.88;;
49183;SDS011;35021;49.214;12.270;2023-07-08T06:42:43;4.32;;;3.80;;
49183;SDS011;35021;49.214;12.270;2023-07-08T06:45:10;4.22;;;3.83;;
49183;SDS011;35021;49.214;12.270;2023-07-08T06:47:38;3.75;;;3.33;;
49183;SDS011;35021;49.214;12.270;2023-07-08T06:50:05;4.50;;;4.05;;
49183;SDS011;35021;49.214;12.270;2023-07-08T06:52:33;4.82;;;3.67;;
49183;SDS011;35021;49.214;12.270;2023-07-08T06:55:01;3.88;;;3.50;;
49183;SDS011;35021;49.214;12.270;2023-07-08T06:57:31;3.88;;;3.47;;
49183;SDS011;35021;49.214;12.270;2023-07-08T06:59:58;4.40;;;3.60;;
49183;SDS011;35021;49.214;12.270;2023-07-08T07:02:27;4.07;;;3.67;;
49183;SDS011;35021;49.214;12.270;2023-07-08T07:04:54;5.22;;;3.70;;
49183;SDS011;35021;49.214;12.270;2023-07-08T07:07:21;5.45;;;3.70;;
49183;SDS011;35021;49.214;12.270;2023-07-08T07:09:49;4.70;;;3.60;;
49183;SDS011;35021;49.214;12.270;2023-07-08T07:12:16;4.97;;;3.83;;
49183;SDS011;35021;49.214;12.270;2023-07-08T07:14:44;4.95;;;3.53;;
49183;SDS011;35021;49.214;12.270;2023-07-08T07:17:13;4.43;;;3.85;;
49183;SDS011;35021;49.214;12.270;2023-07-08T07:19:40;6.82;;;4.03;;
49183;SDS011;35021;49.214;12.270;2023-07-08T07:22:08;4.18;;;3.47;;
49183;SDS011;35021;49.214;12.270;2023-07-08T07:24:35;4.68;;;3.70;;
49183;SDS011;35021;49.214;12.270;2023-07-08T07:27:05;4.28;;;3.72;;
49183;SDS011;35021;49.214;12.270;2023-07-08T07:29:44;3.40;;;3.10;;
49183;SDS011;35021;49.214;12.270;2023-07-08T07:32:14;4.20;;;3.63;;
49183;SDS011;35021;49.214;12.270;2023-07-08T07:34:41;4.07;;;3.67;;
49183;SDS011;35021;49.214;12.270;2023-07-08T07:37:12;3.72;;;3.33;;
49183;SDS011;35021;49.214;12.270;2023-07-08T07:39:41;6.47;;;3.58;;
49183;SDS011;35021;49.214;12.270;2023-07-08T07:42:08;4.32;;;3.25;;
49183;SDS011;35021;49.214;12.270;2023-07-08T07:44:36;3.60;;;3.30;;
49183;SDS011;35021;49.214;12.270;2023-07-08T07:47:06;3.22;;;2.92;;
49183;SDS011;35021;49.214;12.270;2023-07-08T07:49:36;4.60;;;3.67;;
49183;SDS011;35021;49.214;12.270;2023-07-08T07:52:06;3.60;;;3.10;;
49183;SDS011;35021;49.214;12.270;2023-07-08T07:54:36;5.47;;;3.55;;
49183;SDS011;35021;49.214;12.270;2023-07-08T07:57:04;5.15;;;3.70;;
49183;SDS011;35021;49.214;12.270;2023-07-08T07:59:32;4.15;;;3.15;;
49183;SDS011;35021;49.214;12.270;2023-07-08T08:01:59;4.25;;;3.35;;
49183;SDS011;35021;49.214;12.270;2023-07-08T08:04:26;4.22;;;3.20;;
49183;SDS011;35021;49.214;12.270;2023-07-08T08:06:53;4.35;;;2.90;;
49183;SDS011;35021;49.214;12.270;2023-07-08T08:09:20;3.58;;;3.00;;
49183;SDS011;35021;49.214;12.270;2023-07-08T08:11:49;3.30;;;3.00;;
49183;SDS011;35021;49.214;12.270;2023-07-08T08:14:18;3.72;;;3.10;;
49183;SDS011;35021;49.214;12.270;2023-07-08T08:16:45;4.85;;;3.58;;
49183;SDS011;35021;49.214;12.270;2023-07-08T08:19:12;3.70;;;3.05;;
49183;SDS011;35021;49.214;12.270;2023-07-08T08:21:39;3.60;;;2.88;;
49183;SDS011;35021;49.214;12.270;2023-07-08T08:24:06;3.05;;;2.65;;
49183;SDS011;35021;49.214;12.270;2023-07-08T08:26:32;4.30;;;3.13;;
49183;SDS011;35021;49.214;12.270;2023-07-08T08:29:00;3.75;;;3.03;;
49183;SDS011;35021;49.214;12.270;2023-07-08T08:31:27;3.20;;;2.83;;
49183;SDS011;35021;49.214;12.270;2023-07-08T08:33:54;4.93;;;3.25;;
49183;SDS011;35021;49.214;12.270;2023-07-08T08:36:22;3.03;;;2.50;;
49183;SDS011;35021;49.214;12.270;2023-07-08T08:38:49;3.17;;;2.30;;
49183;SDS011;35021;49.214;12.270;2023-07-08T08:41:18;3.55;;;2.90;;
49183;SDS011;35021;49.214;12.270;2023-07-08T08:43:47;3.75;;;3.38;;
49183;SDS011;35021;49.214;12.270;2023-07-08T08:49:44;3.10;;;2.58;;
49183;SDS011;35021;49.214;12.270;2023-07-08T08:52:17;3.22;;;2.78;;
49183;SDS011;35021;49.214;12.270;2023-07-08T08:54:44;3.67;;;2.60;;
49183;SDS011;35021;49.214;12.270;2023-07-08T08:57:28;4.28;;;2.72;;
49183;SDS011;35021;49.214;12.270;2023-07-08T09:00:02;4.90;;;2.90;;
49183;SDS011;35021;49.214;12.270;2023-07-08T09:05:21;3.72;;;2.90;;
49183;SDS011;35021;49.214;12.270;2023-07-08T09:07:58;5.50;;;3.00;;
49183;SDS011;35021;49.214;12.270;2023-07-08T09:10:38;3.38;;;2.60;;
49183;SDS011;35021;49.214;12.270;2023-07-08T09:13:14;2.97;;;2.65;;
49183;SDS011;35021;49.214;12.270;2023-07-08T09:15:52;3.05;;;2.50;;
49183;SDS011;35021;49.214;12.270;2023-07-08T09:18:27;3.38;;;2.70;;
49183;SDS011;35021;49.214;12.270;2023-07-08T09:21:13;2.50;;;2.25;;
49183;SDS011;35021;49.214;12.270;2023-07-08T09:23:44;2.50;;;2.20;;
49183;SDS011;35021;49.214;12.270;2023-07-08T09:26:16;3.00;;;2.70;;
49183;SDS011;35021;49.214;12.270;2023-07-08T09:28:46;3.40;;;2.90;;
49183;SDS011;35021;49.214;12.270;2023-07-08T09:31:20;4.13;;;2.33;;
49183;SDS011;35021;49.214;12.270;2023-07-08T09:33:51;3.33;;;2.78;;
49183;SDS011;35021;49.214;12.270;2023-07-08T09:36:23;3.38;;;2.50;;
49183;SDS011;35021;49.214;12.270;2023-07-08T09:38:51;3.08;;;2.58;;
49183;SDS011;35021;49.214;12.270;2023-07-08T09:41:31;2.88;;;2.60;;
49183;SDS011;35021;49.214;12.270;2023-07-08T09:44:22;3.30;;;2.50;;
49183;SDS011;35021;49.214;12.270;2023-07-08T09:46:56;2.78;;;2.47;;
49183;SDS011;35021;49.214;12.270;2023-07-08T09:49:33;3.97;;;2.40;;
49183;SDS011;35021;49.214;12.270;2023-07-08T09:54:29;3.10;;;2.50;;
49183;SDS011;35021;49.214;12.270;2023-07-08T09:59:36;2.92;;;2.53;;
49183;SDS011;35021;49.214;12.270;2023-07-08T10:02:18;4.00;;;2.80;;
49183;SDS011;35021;49.214;12.270;2023-07-08T10:04:56;3.05;;;2.42;;
49183;SDS011;35021;49.214;12.270;2023-07-08T10:07:27;3.40;;;2.60;;
49183;SDS011;35021;49.214;12.270;2023-07-08T10:09:59;3.03;;;2.50;;
49183;SDS011;35021;49.214;12.270;2023-07-08T10:12:30;2.63;;;1.92;;
49183;SDS011;35021;49.214;12.270;2023-07-08T10:15:00;3.13;;;2.50;;
49183;SDS011;35021;49.214;12.270;2023-07-08T10:17:32;4.20;;;2.47;;
49183;SDS011;35021;49.214;12.270;2023-07-08T10:20:00;3.33;;;2.30;;
49183;SDS011;35021;49.214;12.270;2023-07-08T10:25:28;2.63;;;2.42;;
49183;SDS011;35021;49.214;12.270;2023-07-08T10:36:43;3.15;;;2.65;;
49183;SDS011;35021;49.214;12.270;2023-07-08T10:39:39;2.90;;;2.33;;
49183;SDS011;35021;49.214;12.270;2023-07-08T10:45:10;3.20;;;2.70;;
49183;SDS011;35021;49.214;12.270;2023-07-08T10:50:35;3.47;;;2.58;;
49183;SDS011;35021;49.214;12.270;2023-07-08T10:53:26;3.13;;;2.72;;
49183;SDS011;35021;49.214;12.270;2023-07-08T11:01:57;4.43;;;2.70;;
49183;SDS011;35021;49.214;12.270;2023-07-08T11:07:50;3.53;;;2.47;;
49183;SDS011;35021;49.214;12.270;2023-07-08T11:10:27;3.00;;;2.25;;
49183;SDS011;35021;49.214;12.270;2023-07-08T11:13:09;3.80;;;2.63;;
49183;SDS011;35021;49.214;12.270;2023-07-08T11:21:35;4.53;;;2.70;;
49183;SDS011;35021;49.214;12.270;2023-07-08T11:26:59;4.68;;;2.75;;
49183;SDS011;35021;49.214;12.270;2023-07-08T11:29:35;3.88;;;2.67;;
49183;SDS011;35021;49.214;12.270;2023-07-08T11:32:06;4.80;;;2.95;;
49183;SDS011;35021;49.214;12.270;2023-07-08T11:34:38;4.50;;;2.72;;
49183;SDS011;35021;49.214;12.270;2023-07-08T11:37:08;4.38;;;2.90;;
49183;SDS011;35021;49.214;12.270;2023-07-08T11:39:39;3.58;;;2.45;;
49183;SDS011;35021;49.214;12.270;2023-07-08T11:42:31;4.22;;;2.97;;
49183;SDS011;35021;49.214;12.270;2023-07-08T11:45:00;3.22;;;2.90;;
49183;SDS011;35021;49.214;12.270;2023-07-08T11:47:35;3.72;;;2.95;;
49183;SDS011;35021;49.214;12.270;2023-07-08T11:50:40;3.20;;;2.85;;
49183;SDS011;35021;49.214;12.270;2023-07-08T11:53:06;3.38;;;2.50;;
49183;SDS011;35021;49.214;12.270;2023-07-08T11:55:42;3.35;;;2.47;;
49183;SDS011;35021;49.214;12.270;2023-07-08T12:03:28;3.20;;;2.67;;
49183;SDS011;35021;49.214;12.270;2023-07-08T12:08:59;3.15;;;2.50;;
49183;SDS011;35021;49.214;12.270;2023-07-08T12:11:43;3.67;;;2.42;;
49183;SDS011;35021;49.214;12.270;2023-07-08T12:14:12;3.08;;;2.30;;
49183;SDS011;35021;49.214;12.270;2023-07-08T12:16:41;2.80;;;2.50;;
49183;SDS011;35021;49.214;12.270;2023-07-08T12:19:10;3.22;;;2.53;;
49183;SDS011;35021;49.214;12.270;2023-07-08T12:21:43;2.70;;;2.20;;
49183;SDS011;35021;49.214;12.270;2023-07-08T12:24:11;3.25;;;2.42;;
49183;SDS011;35021;49.214;12.270;2023-07-08T12:26:43;3.08;;;2.78;;
49183;SDS011;35021;49.214;12.270;2023-07-08T12:29:11;2.83;;;2.50;;
49183;SDS011;35021;49.214;12.270;2023-07-08T12:31:40;2.30;;;2.10;;
49183;SDS011;35021;49.214;12.270;2023-07-08T12:34:10;2.80;;;2.30;;
49183;SDS011;35021;49.214;12.270;2023-07-08T12:36:40;3.08;;;2.42;;
49183;SDS011;35021;49.214;12.270;2023-07-08T12:39:10;3.97;;;2.22;;
49183;SDS011;35021;49.214;12.270;2023-07-08T12:41:44;2.92;;;2.30;;
49183;SDS011;35021;49.214;12.270;2023-07-08T12:44:20;3.05;;;2.45;;
49183;SDS011;35021;49.214;12.270;2023-07-08T12:46:48;3.03;;;2.58;;
49183;SDS011;35021;49.214;12.270;2023-07-08T12:49:19;2.83;;;2.47;;
49183;SDS011;35021;49.214;12.270;2023-07-08T12:51:46;2.53;;;2.20;;
49183;SDS011;35021;49.214;12.270;2023-07-08T12:54:14;2.70;;;2.30;;
49183;SDS011;35021;49.214;12.270;2023-07-08T12:56:43;3.33;;;2.35;;
49183;SDS011;35021;49.214;12.270;2023-07-08T12:59:13;3.35;;;2.55;;
49183;SDS011;35021;49.214;12.270;2023-07-08T13:01:46;3.08;;;2.30;;
49183;SDS011;35021;49.214;12.270;2023-07-08T13:04:13;2.50;;;2.17;;
49183;SDS011;35021;49.214;12.270;2023-07-08T13:06:42;3.15;;;2.45;;
49183;SDS011;35021;49.214;12.270;2023-07-08T13:12:17;2.80;;;2.25;;
49183;SDS011;35021;49.214;12.270;2023-07-08T13:14:52;2.83;;;2.30;;
49183;SDS011;35021;49.214;12.270;2023-07-08T13:17:22;3.03;;;2.25;;
49183;SDS011;35021;49.214;12.270;2023-07-08T13:19:50;3.25;;;2.40;;
49183;SDS011;35021;49.214;12.270;2023-07-08T13:22:19;2.58;;;2.20;;
49183;SDS011;35021;49.214;12.270;2023-07-08T13:24:47;2.85;;;2.20;;
49183;SDS011;35021;49.214;12.270;2023-07-08T13:27:22;3.17;;;2.28;;
49183;SDS011;35021;49.214;12.270;2023-07-08T13:29:51;2.40;;;2.20;;
49183;SDS011;35021;49.214;12.270;2023-07-08T13:32:19;2.55;;;2.20;;
49183;SDS011;35021;49.214;12.270;2023-07-08T13:34:48;3.33;;;2.30;;
49183;SDS011;35021;49.214;12.270;2023-07-08T13:37:17;4.43;;;2.83;;
49183;SDS011;35021;49.214;12.270;2023-07-08T13:39:49;3.03;;;2.20;;
49183;SDS011;35021;49.214;12.270;2023-07-08T13:42:20;2.58;;;2.08;;
49183;SDS011;35021;49.214;12.270;2023-07-08T13:44:47;2.10;;;1.83;;
49183;SDS011;35021;49.214;12.270;2023-07-08T13:47:20;3.67;;;2.22;;
49183;SDS011;35021;49.214;12.270;2023-07-08T13:49:59;3.38;;;2.40;;
49183;SDS011;35021;49.214;12.270;2023-07-08T13:52:53;2.22;;;2.03;;
49183;SDS011;35021;49.214;12.270;2023-07-08T13:55:22;2.60;;;2.20;;
49183;SDS011;35021;49.214;12.270;2023-07-08T13:58:00;3.13;;;2.70;;
49183;SDS011;35021;49.214;12.270;2023-07-08T14:00:29;2.58;;;2.33;;
49183;SDS011;35021;49.214;12.270;2023-07-08T14:02:57;3.30;;;2.13;;
49183;SDS011;35021;49.214;12.270;2023-07-08T14:05:25;2.83;;;2.20;;
49183;SDS011;35021;49.214;12.270;2023-07-08T14:07:52;2.50;;;2.25;;
49183;SDS011;35021;49.214;12.270;2023-07-08T14:10:19;2.85;;;2.28;;
49183;SDS011;35021;49.214;12.270;2023-07-08T14:12:47;3.08;;;2.30;;
49183;SDS011;35021;49.214;12.270;2023-07-08T14:15:13;2.63;;;2.20;;
49183;SDS011;35021;49.214;12.270;2023-07-08T14:17:40;3.00;;;2.30;;
49183;SDS011;35021;49.214;12.270;2023-07-08T14:20:11;3.20;;;2.10;;
49183;SDS011;35021;49.214;12.270;2023-07-08T14:22:41;2.85;;;2.50;;
49183;SDS011;35021;49.214;12.270;2023-07-08T14:25:09;2.47;;;2.15;;
49183;SDS011;35021;49.214;12.270;2023-07-08T14:27:36;2.58;;;2.30;;
49183;SDS011;35021;49.214;12.270;2023-07-08T14:30:03;3.17;;;2.40;;
49183;SDS011;35021;49.214;12.270;2023-07-08T14:32:31;2.90;;;2.40;;
49183;SDS011;35021;49.214;12.270;2023-07-08T14:35:14;2.60;;;2.05;;
49183;SDS011;35021;49.214;12.270;2023-07-08T14:37:43;2.70;;;2.30;;
49183;SDS011;35021;49.214;12.270;2023-07-08T14:40:24;2.60;;;2.30;;
49183;SDS011;35021;49.214;12.270;2023-07-08T14:42:54;2.70;;;2.15;;
49183;SDS011;35021;49.214;12.270;2023-07-08T14:45:29;2.85;;;2.40;;
49183;SDS011;35021;49.214;12.270;2023-07-08T14:47:58;2.78;;;2.20;;
49183;SDS011;35021;49.214;12.270;2023-07-08T14:50:25;3.15;;;2.50;;
49183;SDS011;35021;49.214;12.270;2023-07-08T14:52:55;3.00;;;1.83;;
49183;SDS011;35021;49.214;12.270;2023-07-08T14:55:22;2.22;;;2.03;;
49183;SDS011;35021;49.214;12.270;2023-07-08T14:57:49;3.20;;;2.63;;
49183;SDS011;35021;49.214;12.270;2023-07-08T15:00:17;2.88;;;2.30;;
49183;SDS011;35021;49.214;12.270;2023-07-08T15:02:46;2.50;;;2.08;;
49183;SDS011;35021;49.214;12.270;2023-07-08T15:05:15;3.55;;;2.35;;
49183;SDS011;35021;49.214;12.270;2023-07-08T15:07:51;1.92;;;1.73;;
49183;SDS011;35021;49.214;12.270;2023-07-08T15:10:20;2.40;;;2.00;;
49183;SDS011;35021;49.214;12.270;2023-07-08T15:12:49;2.22;;;1.73;;
49183;SDS011;35021;49.214;12.270;2023-07-08T15:15:26;2.58;;;2.10;;
49183;SDS011;35021;49.214;12.270;2023-07-08T15:17:58;2.47;;;2.20;;
49183;SDS011;35021;49.214;12.270;2023-07-08T15:20:26;3.20;;;2.38;;
49183;SDS011;35021;49.214;12.270;2023-07-08T15:22:53;2.55;;;2.17;;
49183;SDS011;35021;49.214;12.270;2023-07-08T15:25:20;2.45;;;2.20;;
49183;SDS011;35021;49.214;12.270;2023-07-08T15:27:47;2.28;;;1.95;;
49183;SDS011;35021;49.214;12.270;2023-07-08T15:30:21;2.47;;;2.25;;
49183;SDS011;35021;49.214;12.270;2023-07-08T15:32:50;2.67;;;2.17;;
49183;SDS011;35021;49.214;12.270;2023-07-08T15:35:19;3.60;;;2.67;;
49183;SDS011;35021;49.214;12.270;2023-07-08T15:37:47;2.75;;;2.30;;
49183;SDS011;35021;49.214;12.270;2023-07-08T15:40:15;2.65;;;2.38;;
49183;SDS011;35021;49.214;12.270;2023-07-08T15:42:44;2.08;;;1.85;;
49183;SDS011;35021;49.214;12.270;2023-07-08T15:47:48;2.72;;;2.10;;
49183;SDS011;35021;49.214;12.270;2023-07-08T15:50:16;2.75;;;2.30;;
49183;SDS011;35021;49.214;12.270;2023-07-08T15:52:44;2.20;;;1.95;;
49183;SDS011;35021;49.214;12.270;2023-07-08T15:55:13;2.60;;;2.03;;
49183;SDS011;35021;49.214;12.270;2023-07-08T15:57:48;2.53;;;2.33;;
49183;SDS011;35021;49.214;12.270;2023-07-08T16:00:22;2.17;;;1.98;;